Segovia, Spain
Current Conditions -  °F | °C
As of 8:30 PM on Thursday 30 Oct 2014 (Local Time) from LEVS Reporting Station
Clear Clear  
Wind Chill: 17°   Ceiling: Unl
Heat Index: 17°   Visibility: 6mi
Dew Point:   Wind: 2mph
Humidity: 55%   Direction: 360°N
Pressure: 30.21"   Gusts: NA
Location:  40.95°N, 4.12°W
Report Text: LEVS 301930Z 36002KT CAVOK 17/08 Q1023
Loading
Personal Weather Stations






























Interactive Weather Map
Tropical Storm Tracking
New forecast layout! Learn more

10-Day Weather Forecast

Advertisements
Track Severe Weather on mobile